.
WxDataArchive / Data Records for 2012-03-22
2012-03-21 March 2012 2012-03-23

Data Records for Thursday, 22 March 2012

Time	Temp	Chill	HIndex	Humid	Dewpt	 Wind 	HiWind	WindDir	Rain 	Barom 
-----	----	-----	------	-----	-----	------	------	-------	-----	----- 
00:00	63.4	63.4	63.4	72	54.2	0	0	---	0.00	30.071 
00:05	63.4	63.4	63.4	74	55.0	0	0	---	0.00	30.071 
00:10	63.5	63.5	63.5	73	54.7	0	0	---	0.00	30.071 
00:15	63.7	63.7	63.7	71	54.1	0	1	112	0.00	30.068 
00:20	64.2	64.2	64.2	70	54.2	0	2	112	0.00	30.068 
00:25	64.5	64.5	64.5	69	54.1	0	1	112	0.00	30.068 
00:30	64.7	64.7	64.7	68	53.9	0	1	112	0.00	30.063 
00:35	64.8	64.8	64.8	68	54.0	0	1	112	0.00	30.063 
00:40	65.0	65.0	65.0	67	53.8	0	2	112	0.00	30.063 
00:45	65.0	65.0	65.0	68	54.2	0	1	112	0.00	30.063 
00:50	64.8	64.8	64.8	68	54.0	0	0	---	0.00	30.063 
00:55	64.5	64.5	64.5	69	54.1	0	0	---	0.00	30.063 
01:00	64.0	64.0	64.0	69	53.6	0	0	---	0.00	30.062 
01:05	63.5	63.5	63.5	70	53.5	0	0	---	0.00	30.062 
01:10	63.2	63.2	63.2	71	53.6	0	0	---	0.00	30.062 
01:15	62.7	62.7	62.7	71	53.2	0	0	---	0.00	30.061 
01:20	62.4	62.4	62.4	72	53.2	0	0	---	0.00	30.061 
01:25	62.1	62.1	62.1	73	53.3	0	0	---	0.00	30.061 
01:30	61.8	61.8	61.8	73	53.0	0	0	---	0.00	30.061 
01:35	61.5	61.5	61.5	74	53.1	0	0	---	0.00	30.061 
01:40	61.3	61.3	61.3	75	53.3	0	0	---	0.00	30.061 
01:45	61.0	61.0	61.0	76	53.4	0	0	---	0.00	30.062 
01:50	60.7	60.7	60.7	77	53.4	0	0	---	0.00	30.062 
01:55	60.5	60.5	60.5	77	53.2	0	0	---	0.00	30.062 
02:00	60.2	60.2	60.2	78	53.3	0	0	---	0.00	30.060 
02:05	60.1	60.1	60.1	78	53.2	0	0	---	0.00	30.060 
02:10	59.9	59.9	59.9	79	53.4	0	0	---	0.00	30.060 
02:15	59.8	59.8	59.8	80	53.6	0	0	---	0.00	30.066 
02:20	59.8	59.8	59.8	80	53.6	0	0	---	0.00	30.066 
02:25	59.6	59.6	59.6	80	53.4	0	0	---	0.00	30.066 
02:30	59.5	59.5	59.5	81	53.7	0	0	---	0.00	30.068 
02:35	59.3	59.3	59.3	81	53.5	0	0	---	0.00	30.068 
02:40	59.2	59.2	59.2	81	53.4	0	0	---	0.00	30.068 
02:45	59.0	59.0	59.0	81	53.2	0	0	---	0.00	30.072 
02:50	58.7	58.7	58.7	82	53.2	0	0	---	0.00	30.072 
02:55	58.6	58.6	58.6	82	53.1	0	0	---	0.00	30.072 
03:00	58.4	58.4	58.4	83	53.3	0	0	---	0.00	30.079 
03:05	58.3	58.3	58.3	84	53.5	0	0	---	0.00	30.079 
03:10	58.3	58.3	58.3	84	53.5	0	0	---	0.00	30.079 
03:15	58.1	58.1	58.1	84	53.3	0	0	---	0.00	30.079 
03:20	58.0	58.0	58.0	84	53.2	0	0	---	0.00	30.079 
03:25	57.8	57.8	57.8	85	53.3	0	0	---	0.00	30.079 
03:30	57.6	57.6	57.6	86	53.4	0	0	---	0.00	30.080 
03:35	57.5	57.5	57.5	86	53.3	0	0	---	0.00	30.080 
03:40	57.3	57.3	57.3	86	53.1	0	0	---	0.00	30.080 
03:45	57.2	57.2	57.2	86	53.0	0	0	---	0.00	30.080 
03:50	57.0	57.0	57.0	86	52.9	0	0	---	0.00	30.080 
03:55	57.0	57.0	57.0	87	53.2	0	0	---	0.00	30.080 
04:00	56.9	56.9	56.9	87	53.1	0	0	---	0.00	30.079 
04:05	56.9	56.9	56.9	88	53.4	0	0	---	0.00	30.079 
04:10	56.9	56.9	56.9	88	53.4	0	1	112	0.00	30.079 
04:15	56.7	56.7	56.7	88	53.2	0	0	---	0.00	30.080 
04:20	56.6	56.6	56.6	88	53.1	0	0	---	0.00	30.080 
04:25	56.5	56.5	56.5	88	53.0	0	0	---	0.00	30.080 
04:30	56.5	56.5	56.5	88	53.0	0	0	---	0.00	30.080 
04:35	56.3	56.3	56.3	88	52.8	0	0	---	0.00	30.080 
04:40	56.2	56.2	56.2	88	52.7	0	0	---	0.00	30.080 
04:45	56.0	56.0	56.0	88	52.5	0	0	---	0.00	30.080 
04:50	56.0	56.0	56.0	89	52.8	0	0	---	0.00	30.080 
04:55	56.2	56.2	56.2	89	53.0	0	0	---	0.00	30.080 
05:00	56.2	56.2	56.2	89	53.0	0	0	---	0.00	30.079 
05:05	56.2	56.2	56.2	89	53.0	0	0	---	0.00	30.079 
05:10	56.0	56.0	56.0	89	52.8	0	0	---	0.00	30.079 
05:15	56.0	56.0	56.0	89	52.8	0	0	---	0.00	30.080 
05:20	56.0	56.0	56.0	89	52.8	0	0	---	0.00	30.080 
05:25	56.0	56.0	56.0	90	53.1	0	0	---	0.00	30.080 
05:30	56.0	56.0	56.0	90	53.1	0	0	---	0.00	30.082 
05:35	55.9	55.9	55.9	90	53.0	0	0	---	0.00	30.082 
05:40	55.9	55.9	55.9	90	53.0	0	0	---	0.00	30.082 
05:45	55.7	55.7	55.7	90	52.8	0	0	---	0.00	30.086 
05:50	55.7	55.7	55.7	90	52.8	0	0	---	0.00	30.086 
05:55	55.7	55.7	55.7	91	53.1	0	0	---	0.00	30.086 
06:00	55.6	55.6	55.6	91	53.0	0	0	---	0.00	30.095 
06:05	55.6	55.6	55.6	91	53.0	0	0	---	0.00	30.095 
06:10	55.6	55.6	55.6	91	53.0	0	0	---	0.00	30.095 
06:15	55.4	55.4	55.4	91	52.8	0	0	---	0.00	30.099 
06:20	55.4	55.4	55.4	91	52.8	0	0	---	0.00	30.099 
06:25	55.3	55.3	55.3	91	52.7	0	0	---	0.00	30.099 
06:30	55.1	55.1	55.1	91	52.5	0	0	---	0.00	30.101 
06:35	55.1	55.1	55.1	91	52.5	0	0	---	0.00	30.101 
06:40	55.0	55.0	55.0	91	52.4	0	0	---	0.00	30.101 
06:45	55.0	55.0	55.0	91	52.4	0	0	---	0.00	30.101 
06:50	55.0	55.0	55.0	91	52.4	0	0	---	0.00	30.101 
06:55	54.8	54.8	54.8	92	52.5	0	0	---	0.00	30.101 
07:00	55.0	55.0	55.0	92	52.7	0	0	---	0.00	30.101 
07:05	55.0	55.0	55.0	92	52.7	0	0	---	0.00	30.101 
07:10	54.8	54.8	54.8	92	52.5	0	0	---	0.00	30.101 
07:15	54.7	54.7	54.7	92	52.4	0	0	---	0.00	30.105 
07:20	54.7	54.7	54.7	92	52.4	0	0	---	0.00	30.105 
07:25	54.7	54.7	54.7	92	52.4	0	0	---	0.00	30.105 
07:30	54.7	54.7	54.7	92	52.4	0	0	---	0.00	30.104 
07:35	54.8	54.8	54.8	92	52.5	0	0	---	0.00	30.104 
07:40	54.8	54.8	54.8	93	52.8	0	0	---	0.00	30.104 
07:45	54.8	54.8	54.8	93	52.8	0	0	---	0.00	30.106 
07:50	54.7	54.7	54.7	93	52.7	0	0	---	0.00	30.106 
07:55	54.7	54.7	54.7	93	52.7	0	0	---	0.00	30.106 
08:00	54.8	54.8	54.8	93	52.8	0	0	---	0.00	30.110 
08:05	54.7	54.7	54.7	93	52.7	0	0	---	0.00	30.110 
08:10	54.8	54.8	54.8	93	52.8	0	0	---	0.00	30.110 
08:15	55.0	55.0	55.0	94	53.3	0	0	---	0.00	30.123 
08:20	55.3	55.3	55.3	94	53.6	0	0	---	0.00	30.123 
08:25	55.6	55.6	55.6	94	53.9	0	0	---	0.00	30.123 
08:30	56.0	56.0	56.0	94	54.3	0	0	---	0.00	30.122 
08:35	56.6	56.6	56.6	94	54.9	0	0	---	0.00	30.122 
08:40	57.3	57.3	57.3	94	55.6	0	0	---	0.00	30.122 
08:45	58.0	58.0	58.0	95	56.6	0	0	---	0.00	30.121 
08:50	58.7	58.7	58.7	94	57.0	0	0	---	0.00	30.121 
08:55	59.3	59.3	59.3	93	57.3	0	0	---	0.00	30.121 
09:00	59.9	59.9	59.9	90	57.0	0	1	112	0.00	30.119 
09:05	60.5	60.5	60.5	89	57.2	0	0	---	0.00	30.119 
09:10	61.2	61.2	61.2	87	57.3	0	0	---	0.00	30.119 
09:15	62.0	62.0	62.0	86	57.8	0	0	---	0.00	30.121 
09:20	62.6	62.6	62.6	83	57.4	0	1	112	0.00	30.121 
09:25	63.2	63.2	63.2	80	56.9	0	2	112	0.00	30.121 
09:30	63.7	63.7	63.7	79	57.1	0	1	112	0.00	30.121 
09:35	64.5	64.5	64.5	75	56.4	0	1	112	0.00	30.121 
09:40	65.3	65.3	65.3	74	56.8	0	1	112	0.00	30.121 
09:45	66.0	66.0	66.0	73	57.1	0	1	112	0.00	30.119 
09:50	66.4	66.4	66.4	72	57.1	0	2	112	0.00	30.119 
09:55	66.9	66.9	66.9	72	57.6	0	3	112	0.00	30.119 
10:00	67.4	67.4	67.4	70	57.3	1	2	112	0.00	30.119 
10:05	68.1	68.1	68.1	69	57.5	0	1	112	0.00	30.119 
10:10	68.9	68.9	68.9	69	58.3	0	2	112	0.00	30.119 
10:15	69.6	69.6	69.6	66	57.7	0	2	112	0.00	30.120 
10:20	70.1	70.1	70.1	65	57.8	0	2	112	0.00	30.120 
10:25	70.8	70.8	70.8	63	57.6	0	2	112	0.00	30.120 
10:30	71.5	71.5	71.5	63	58.2	0	1	112	0.00	30.118 
10:35	72.1	72.1	72.1	62	58.3	0	1	112	0.00	30.118 
10:40	72.8	72.8	72.8	59	57.6	0	1	112	0.00	30.118 
10:45	73.5	73.5	73.5	60	58.7	0	2	112	0.00	30.120 
10:50	74.0	74.0	74.0	55	56.8	0	2	112	0.00	30.120 
10:55	74.6	74.6	74.6	55	57.3	0	1	112	0.00	30.120 
11:00	75.3	75.3	77.7	54	57.5	0	0	---	0.00	30.121 
11:05	75.6	75.6	77.9	53	57.2	0	1	112	0.00	30.121 
11:10	75.8	75.8	78.0	50	55.8	0	0	---	0.00	30.121 
11:15	76.1	76.1	78.1	51	56.6	0	0	---	0.00	30.122 
11:20	76.1	76.1	78.1	49	55.5	0	1	112	0.00	30.122 
11:25	76.5	76.5	78.3	50	56.5	0	0	---	0.00	30.122 
11:30	76.8	76.8	78.5	49	56.2	0	0	---	0.00	30.117 
11:35	77.2	77.2	78.6	47	55.4	0	0	---	0.00	30.117 
11:40	77.9	77.9	79.0	47	56.0	0	0	---	0.00	30.117 
11:45	78.1	78.1	79.1	46	55.6	0	1	112	0.00	30.114 
11:50	78.1	78.1	79.0	45	55.0	0	2	112	0.00	30.114 
11:55	78.3	78.3	79.2	45	55.2	0	1	112	0.00	30.114 
12:00	78.5	78.5	79.2	44	54.7	0	3	112	0.00	30.110 
12:05	78.8	78.8	79.6	46	56.2	0	1	112	0.00	30.110 
12:10	79.2	79.2	79.7	44	55.4	0	2	112	0.00	30.110 
12:15	79.6	79.6	80.0	44	55.7	0	0	---	0.00	30.104 
12:20	79.8	79.8	80.0	43	55.3	0	0	---	0.00	30.104 
12:25	80.3	80.3	80.4	43	55.7	0	1	112	0.00	30.104 
12:30	80.9	80.9	80.8	42	55.6	0	3	112	0.00	30.098 
12:35	81.1	81.1	80.9	42	55.8	1	3	112	0.00	30.098 
12:40	81.2	81.2	80.9	41	55.2	0	2	112	0.00	30.098 
12:45	81.6	81.6	81.3	42	56.3	0	1	112	0.00	30.096 
12:50	81.6	81.6	81.3	42	56.3	0	3	225	0.00	30.096 
12:55	81.6	81.6	81.0	39	54.2	1	3	68	0.00	30.096 
13:00	81.4	81.4	80.9	39	54.0	1	3	68	0.00	30.098 
13:05	81.4	81.4	81.2	42	56.1	1	3	112	0.00	30.098 
13:10	81.4	81.4	80.9	39	54.0	1	5	90	0.00	30.098 
13:15	81.1	81.1	80.7	40	54.5	1	3	248	0.00	30.099 
13:20	81.1	81.1	80.8	41	55.1	1	4	248	0.00	30.099 
13:25	81.1	81.1	80.6	39	53.8	1	4	248	0.00	30.099 
13:30	81.1	81.1	80.7	40	54.5	0	2	90	0.00	30.097 
13:35	81.4	81.4	81.3	43	56.7	1	2	90	0.00	30.097 
13:40	81.8	81.8	81.2	39	54.4	0	2	90	0.00	30.097 
13:45	81.8	81.8	81.3	40	55.1	2	5	90	0.00	30.090 
13:50	81.6	81.6	81.7	45	58.2	1	4	112	0.00	30.090 
13:55	81.8	81.8	81.3	40	55.1	1	3	270	0.00	30.090 
14:00	82.0	82.0	81.5	40	55.3	1	3	248	0.00	30.084 
14:05	82.0	82.0	81.5	40	55.3	1	3	112	0.00	30.084 
14:10	82.0	82.0	81.5	40	55.3	1	4	112	0.00	30.084 
14:15	82.2	82.2	81.5	39	54.7	0	3	112	0.00	30.083 
14:20	82.4	82.4	82.2	43	57.6	0	2	112	0.00	30.083 
14:25	82.6	82.6	82.2	42	57.2	1	4	90	0.00	30.083 
14:30	82.4	82.4	81.7	39	54.9	1	4	112	0.00	30.078 
14:35	82.6	82.6	82.0	40	55.8	0	3	112	0.00	30.078 
14:40	83.0	83.0	82.6	42	57.5	0	3	112	0.00	30.078 
14:45	83.0	83.0	82.6	42	57.5	0	3	0	0.00	30.068 
14:50	83.0	83.0	82.6	42	57.5	1	3	338	0.00	30.068 
14:55	83.2	83.2	82.5	40	56.3	1	5	248	0.00	30.068 
15:00	83.0	83.0	82.3	40	56.2	1	4	248	0.00	30.064 
15:05	82.8	82.8	82.2	40	56.0	1	3	248	0.00	30.064 
15:10	82.6	82.6	81.7	38	54.4	2	4	112	0.00	30.064 
15:15	82.6	82.6	82.1	41	56.5	1	5	112	0.00	30.057 
15:20	82.4	82.4	81.9	41	56.3	0	2	112	0.00	30.057 
15:25	82.4	82.4	82.5	45	58.9	0	2	22	0.00	30.057 
15:30	82.6	82.6	81.7	38	54.4	1	4	112	0.00	30.053 
15:35	82.8	82.8	82.4	42	57.3	1	3	135	0.00	30.053 
15:40	82.6	82.6	81.7	38	54.4	1	4	225	0.00	30.053 
15:45	82.6	82.6	82.0	40	55.8	1	2	112	0.00	30.050 
15:50	82.6	82.6	81.7	38	54.4	0	2	180	0.00	30.050 
15:55	82.6	82.6	81.8	39	55.1	1	3	180	0.00	30.050 
16:00	82.6	82.6	81.6	37	53.7	1	4	112	0.00	30.049 
16:05	82.2	82.2	81.4	38	54.0	1	4	112	0.00	30.049 
16:10	81.8	81.8	81.0	37	53.0	0	4	112	0.00	30.049 
16:15	81.6	81.6	81.2	41	55.6	1	4	90	0.00	30.049 
16:20	81.6	81.6	81.0	39	54.2	1	3	90	0.00	30.049 
16:25	81.6	81.6	80.9	38	53.5	1	4	112	0.00	30.049 
16:30	81.8	81.8	81.1	38	53.7	2	4	90	0.00	30.047 
16:35	81.8	81.8	81.2	39	54.4	1	3	90	0.00	30.047 
16:40	81.8	81.8	81.0	37	53.0	1	4	90	0.00	30.047 
16:45	81.8	81.8	81.1	38	53.7	1	5	90	0.00	30.039 
16:50	81.8	81.8	81.3	40	55.1	0	2	90	0.00	30.039 
16:55	81.8	81.8	81.3	40	55.1	1	3	90	0.00	30.039 
17:00	81.8	81.8	81.3	40	55.1	0	2	90	0.00	30.035 
17:05	81.4	81.4	80.9	39	54.0	1	3	90	0.00	30.035 
17:10	80.9	80.9	80.7	41	55.0	1	4	112	0.00	30.035 
17:15	80.3	80.3	80.2	41	54.4	0	1	112	0.00	30.037 
17:20	79.9	79.9	79.8	39	52.7	0	2	112	0.00	30.037 
17:25	79.8	79.8	79.9	41	54.0	0	1	112	0.00	30.037 
17:30	79.8	79.8	80.0	42	54.6	0	2	112	0.00	30.033 
17:35	80.1	80.1	80.1	41	54.2	0	3	112	0.00	30.033 
17:40	80.5	80.5	80.5	42	55.3	0	2	112	0.00	30.033 
17:45	80.5	80.5	80.5	42	55.3	0	2	112	0.00	30.031 
17:50	80.3	80.3	80.4	43	55.7	0	1	112	0.00	30.031 
17:55	79.9	79.9	80.1	43	55.4	0	1	112	0.00	30.031 
18:00	79.6	79.6	79.8	42	54.5	0	1	112	0.00	30.026 
18:05	79.0	79.0	79.4	42	53.9	0	0	---	0.00	30.026 
18:10	78.8	78.8	79.4	43	54.4	0	1	112	0.00	30.026 
18:15	78.6	78.6	79.2	43	54.2	0	0	---	0.00	30.027 
18:20	78.3	78.3	79.1	43	53.9	0	0	---	0.00	30.027 
18:25	77.9	77.9	78.9	44	54.2	0	0	---	0.00	30.027 
18:30	77.7	77.7	78.8	45	54.6	0	1	112	0.00	30.028 
18:35	77.6	77.6	78.8	45	54.6	0	1	112	0.00	30.028 
18:40	77.6	77.6	78.8	46	55.2	0	1	112	0.00	30.028 
18:45	77.6	77.6	78.8	46	55.2	0	1	112	0.00	30.031 
18:50	77.6	77.6	78.8	46	55.2	0	1	112	0.00	30.031 
18:55	77.6	77.6	78.8	47	55.8	0	0	---	0.00	30.031 
19:00	77.4	77.4	78.8	48	56.1	0	2	135	0.00	30.029 
19:05	77.2	77.2	78.6	46	54.8	0	1	135	0.00	30.029 
19:10	77.4	77.4	78.7	46	55.0	0	1	135	0.00	30.029 
19:15	77.4	77.4	78.7	46	55.0	0	0	---	0.00	30.030 
19:20	77.4	77.4	78.7	46	55.0	0	0	---	0.00	30.030 
19:25	77.2	77.2	78.6	47	55.4	0	0	---	0.00	30.030 
19:30	77.0	77.0	78.5	48	55.8	0	0	---	0.00	30.032 
19:35	76.8	76.8	78.5	50	56.7	1	3	135	0.00	30.032 
19:40	76.3	76.3	78.2	48	55.1	1	5	135	0.00	30.032 
19:45	76.1	76.1	78.1	48	55.0	1	4	68	0.00	30.039 
19:50	76.0	76.0	78.1	50	56.0	0	1	68	0.00	30.039 
19:55	75.8	75.8	78.0	50	55.8	0	1	68	0.00	30.039 
20:00	75.4	75.4	77.8	50	55.4	0	0	---	0.00	30.038 
20:05	75.1	75.1	77.7	51	55.7	0	0	---	0.00	30.038 
20:10	74.7	74.7	74.7	51	55.4	0	0	---	0.00	30.038 
20:15	74.4	74.4	74.4	52	55.6	0	0	---	0.00	30.033 
20:20	74.0	74.0	74.0	53	55.8	0	0	---	0.00	30.033 
20:25	73.5	73.5	73.5	54	55.8	0	0	---	0.00	30.033 
20:30	73.2	73.2	73.2	55	56.0	0	0	---	0.00	30.036 
20:35	72.5	72.5	72.5	58	56.9	0	0	---	0.00	30.036 
20:40	72.0	72.0	72.0	58	56.4	0	0	---	0.00	30.036 
20:45	71.5	71.5	71.5	59	56.4	0	0	---	0.00	30.035 
20:50	71.1	71.1	71.1	59	56.0	0	0	---	0.00	30.035 
20:55	70.8	70.8	70.8	61	56.7	0	0	---	0.00	30.035 
21:00	70.4	70.4	70.4	62	56.7	0	0	---	0.00	30.041 
21:05	70.1	70.1	70.1	62	56.5	0	0	---	0.00	30.041 
21:10	69.9	69.9	69.9	63	56.7	0	0	---	0.00	30.041 
21:15	69.6	69.6	69.6	64	56.9	0	0	---	0.00	30.037 
21:20	69.4	69.4	69.4	65	57.1	0	0	---	0.00	30.037 
21:25	69.1	69.1	69.1	65	56.8	0	0	---	0.00	30.037 
21:30	68.8	68.8	68.8	66	57.0	0	0	---	0.00	30.037 
21:35	68.6	68.6	68.6	66	56.8	0	0	---	0.00	30.037 
21:40	68.3	68.3	68.3	67	56.9	0	0	---	0.00	30.037 
21:45	67.9	67.9	67.9	68	56.9	0	0	---	0.00	30.038 
21:50	67.6	67.6	67.6	69	57.1	0	0	---	0.00	30.038 
21:55	67.3	67.3	67.3	69	56.8	0	0	---	0.00	30.038 
22:00	66.9	66.9	66.9	69	56.4	0	0	---	0.00	30.038 
22:05	66.8	66.8	66.8	70	56.7	0	0	---	0.00	30.038 
22:10	66.8	66.8	66.8	70	56.7	0	0	---	0.00	30.038 
22:15	66.6	66.6	66.6	70	56.5	0	0	---	0.00	30.030 
22:20	66.4	66.4	66.4	70	56.3	0	0	---	0.00	30.030 
22:25	66.3	66.3	66.3	70	56.2	0	0	---	0.00	30.030 
22:30	66.0	66.0	66.0	71	56.3	0	0	---	0.00	30.033 
22:35	65.8	65.8	65.8	71	56.1	0	0	---	0.00	30.033 
22:40	65.6	65.6	65.6	72	56.3	0	0	---	0.00	30.033 
22:45	65.5	65.5	65.5	72	56.2	0	0	---	0.00	30.034 
22:50	65.3	65.3	65.3	71	55.6	0	0	---	0.00	30.034 
22:55	65.3	65.3	65.3	71	55.6	0	0	---	0.00	30.034 
23:00	65.2	65.2	65.2	71	55.6	0	0	---	0.00	30.035 
23:05	65.0	65.0	65.0	72	55.7	0	0	---	0.00	30.035 
23:10	64.8	64.8	64.8	73	55.9	0	0	---	0.00	30.035 
23:15	64.7	64.7	64.7	73	55.8	0	0	---	0.00	30.030 
23:20	64.7	64.7	64.7	73	55.8	0	0	---	0.00	30.030 
23:25	64.7	64.7	64.7	73	55.8	0	0	---	0.00	30.030 
23:30	64.8	64.8	64.8	73	55.9	0	0	---	0.00	30.030 
23:35	64.8	64.8	64.8	73	55.9	0	0	---	0.00	30.030 
23:40	64.8	64.8	64.8	73	55.9	0	0	---	0.00	30.030 
23:45	64.8	64.8	64.8	73	55.9	0	0	---	0.00	30.030 
23:50	64.7	64.7	64.7	73	55.8	0	0	---	0.00	30.030 
23:55	64.7	64.7	64.7	73	55.8	0	0	---	0.00	30.030 

CoCoRaHS
IN-AL-39
A2 Web Hosting
Creative Commons License
GoDaddy
search engine by freefind advanced

loaded 2018-11-13 23:22:02 • last modified 2010-11-18 10:43:29
Privacy PolicyDisclaimer
• wx.awcolley.com is powered by PmWiki v.2002016 •
• all content (unless otherwise noted) © 2018 A W Colley